createdAt,value
2018-11-01T00:00:23.196Z,5.20
2018-11-01T00:01:23.064Z,5.30
2018-11-01T00:02:22.933Z,5.27
2018-11-01T00:03:22.804Z,5.27
2018-11-01T00:04:22.675Z,5.23
2018-11-01T00:05:22.546Z,5.27
2018-11-01T00:06:22.414Z,5.27
2018-11-01T00:07:22.285Z,5.38
2018-11-01T00:08:22.156Z,5.50
2018-11-01T00:09:22.029Z,5.46
2018-11-01T00:10:21.896Z,5.41
2018-11-01T00:11:21.771Z,5.46
2018-11-01T00:12:21.637Z,5.35
2018-11-01T00:13:21.509Z,5.38
2018-11-01T00:14:21.377Z,5.35
2018-11-01T00:15:21.250Z,5.46
2018-11-01T00:16:21.119Z,5.46
2018-11-01T00:17:20.988Z,5.25
2018-11-01T00:18:20.860Z,5.34
2018-11-01T00:19:20.730Z,5.43
2018-11-01T00:20:20.602Z,5.48
2018-11-01T00:21:20.470Z,5.30
2018-11-01T00:22:20.339Z,5.23
2018-11-01T00:23:20.211Z,5.13
2018-11-01T00:24:20.081Z,5.13
2018-11-01T00:25:19.952Z,5.17
2018-11-01T00:26:19.823Z,5.16
2018-11-01T00:27:19.692Z,5.30
2018-11-01T00:28:19.563Z,5.27
2018-11-01T00:29:19.434Z,5.31
2018-11-01T00:30:19.304Z,5.27
2018-11-01T00:31:19.172Z,5.12
2018-11-01T00:32:19.044Z,5.22
2018-11-01T00:33:18.915Z,5.16
2018-11-01T00:34:18.785Z,5.14
2018-11-01T00:35:18.656Z,5.17
2018-11-01T00:36:18.525Z,5.14
2018-11-01T00:37:18.395Z,5.28
2018-11-01T00:38:18.272Z,5.16
2018-11-01T00:39:18.137Z,5.16
2018-11-01T00:40:18.008Z,5.13
2018-11-01T00:41:17.879Z,5.17
2018-11-01T00:42:17.748Z,5.17
2018-11-01T00:43:17.618Z,5.20
2018-11-01T00:44:17.489Z,5.14
2018-11-01T00:45:17.356Z,5.16
2018-11-01T00:46:17.226Z,5.28
2018-11-01T00:47:17.099Z,5.32
2018-11-01T00:48:17.018Z,5.52
2018-11-01T00:49:16.839Z,5.53
2018-11-01T00:50:16.713Z,5.56
2018-11-01T00:51:16.578Z,5.48
2018-11-01T00:52:16.449Z,5.46
2018-11-01T00:53:16.320Z,5.30
2018-11-01T00:54:16.189Z,5.20
2018-11-01T00:55:16.059Z,5.07
2018-11-01T00:56:15.931Z,5.27
2018-11-01T00:57:15.803Z,5.17
2018-11-01T00:58:15.672Z,5.17
2018-11-01T00:59:15.542Z,5.30
2018-11-01T01:00:15.434Z,5.23
2018-11-01T01:01:15.283Z,5.35
2018-11-01T01:02:15.152Z,5.22
2018-11-01T01:03:15.022Z,5.35
2018-11-01T01:04:14.893Z,5.28
2018-11-01T01:05:14.764Z,5.30
2018-11-01T01:06:14.632Z,5.23
2018-11-01T01:07:14.506Z,5.35
2018-11-01T01:08:14.376Z,5.28
2018-11-01T01:09:14.245Z,5.27
2018-11-01T01:10:14.117Z,5.14
2018-11-01T01:11:13.985Z,5.17
2018-11-01T01:12:13.857Z,5.17
2018-11-01T01:13:13.727Z,5.20
2018-11-01T01:14:13.597Z,5.20
2018-11-01T01:15:13.466Z,5.20
2018-11-01T01:16:13.338Z,5.31
2018-11-01T01:17:13.207Z,5.27
2018-11-01T01:18:13.078Z,5.31
2018-11-01T01:19:12.948Z,5.32
2018-11-01T01:20:12.823Z,5.32
2018-11-01T01:21:12.687Z,5.25
2018-11-01T01:22:12.557Z,5.17
2018-11-01T01:23:12.432Z,5.10
2018-11-01T01:24:12.298Z,5.13
2018-11-01T01:25:12.169Z,5.14
2018-11-01T01:26:12.039Z,5.13
2018-11-01T01:27:11.909Z,5.12
2018-11-01T01:28:11.780Z,5.01
2018-11-01T01:29:11.654Z,5.09
2018-11-01T01:30:11.528Z,5.13
2018-11-01T01:31:11.393Z,5.28
2018-11-01T01:32:11.260Z,5.34
2018-11-01T01:33:11.133Z,5.52
2018-11-01T01:34:11.001Z,5.48
2018-11-01T01:35:10.872Z,5.41
2018-11-01T01:36:10.741Z,5.37
2018-11-01T01:37:10.611Z,5.32
2018-11-01T01:38:10.483Z,5.27
2018-11-01T01:39:10.352Z,5.17
2018-11-01T01:40:10.225Z,5.19
2018-11-01T01:41:10.093Z,5.16
2018-11-01T01:42:09.962Z,5.17
2018-11-01T01:43:09.838Z,5.20
2018-11-01T01:44:09.704Z,5.16
2018-11-01T01:45:09.574Z,5.28
2018-11-01T01:46:09.442Z,5.31
2018-11-01T01:47:09.314Z,5.31
2018-11-01T01:48:09.186Z,5.34
2018-11-01T01:49:09.057Z,5.28
2018-11-01T01:50:08.925Z,5.34
2018-11-01T01:51:08.849Z,5.48
2018-11-01T01:52:08.666Z,5.40
2018-11-01T01:53:08.539Z,5.46
2018-11-01T01:54:08.408Z,5.40
2018-11-01T01:55:08.280Z,5.46
2018-11-01T01:56:08.148Z,5.56
2018-11-01T01:57:08.018Z,5.77
2018-11-01T01:58:07.887Z,5.73
2018-11-01T01:59:07.760Z,5.73
2018-11-01T02:00:07.630Z,5.59
2018-11-01T02:01:07.504Z,5.73
2018-11-01T02:02:07.369Z,5.81
2018-11-01T02:03:07.241Z,5.68
2018-11-01T02:04:07.111Z,5.57
2018-11-01T02:05:06.981Z,5.55
2018-11-01T02:06:06.852Z,5.43
2018-11-01T02:07:06.729Z,5.43
2018-11-01T02:08:06.592Z,5.41
2018-11-01T02:09:06.463Z,5.56
2018-11-01T02:10:06.335Z,5.64
2018-11-01T02:11:06.205Z,5.64
2018-11-01T02:12:06.076Z,5.50
2018-11-01T02:13:05.948Z,5.81
2018-11-01T02:14:05.816Z,6.14
2018-11-01T02:15:05.686Z,6.16
2018-11-01T02:16:05.557Z,6.09
2018-11-01T02:17:05.428Z,5.89
2018-11-01T02:18:05.298Z,5.93
2018-11-01T02:19:05.170Z,5.93
2018-11-01T02:20:05.040Z,6.26
2018-11-01T02:21:04.912Z,6.10
2018-11-01T02:22:04.781Z,6.10
2018-11-01T02:23:04.652Z,6.01
2018-11-01T02:24:04.523Z,5.92
2018-11-01T02:25:04.393Z,5.81
2018-11-01T02:26:04.265Z,5.67
2018-11-01T02:27:04.135Z,5.53
2018-11-01T02:28:04.007Z,5.46
2018-11-01T02:29:03.877Z,5.40
2018-11-01T02:30:03.751Z,5.46
2018-11-01T02:31:03.620Z,5.55
2018-11-01T02:32:03.490Z,5.86
2018-11-01T02:33:03.363Z,5.95
2018-11-01T02:34:03.232Z,5.95
2018-11-01T02:35:03.105Z,5.78
2018-11-01T02:36:02.975Z,5.74
2018-11-01T02:37:02.848Z,6.01
2018-11-01T02:38:02.762Z,6.00
2018-11-01T02:39:02.585Z,6.10
2018-11-01T02:40:02.455Z,6.11
2018-11-01T02:41:02.329Z,5.98
2018-11-01T02:42:02.196Z,5.95
2018-11-01T02:43:02.071Z,6.01
2018-11-01T02:44:01.943Z,5.92
2018-11-01T02:45:01.813Z,6.11
2018-11-01T02:46:01.681Z,6.04
2018-11-01T02:47:01.556Z,5.95
2018-11-01T02:48:01.422Z,5.95
2018-11-01T02:49:01.297Z,6.11
2018-11-01T02:50:01.173Z,6.33
2018-11-01T02:51:01.039Z,6.47
2018-11-01T02:52:00.908Z,6.21
2018-11-01T02:53:00.779Z,6.10
2018-11-01T02:54:00.653Z,6.00
2018-11-01T02:55:00.520Z,6.04
2018-11-01T02:56:00.393Z,6.10
2018-11-01T02:57:00.264Z,6.18
2018-11-01T02:58:00.135Z,6.16
2018-11-01T02:59:00.004Z,6.11
2018-11-01T02:59:59.875Z,6.09
2018-11-01T03:00:59.750Z,6.18
2018-11-01T03:01:59.616Z,6.38
2018-11-01T03:02:59.486Z,6.61
2018-11-01T03:03:59.360Z,6.69
2018-11-01T03:04:59.233Z,6.99
2018-11-01T03:05:59.102Z,7.01
2018-11-01T03:06:58.973Z,7.42
2018-11-01T03:07:58.860Z,7.40
2018-11-01T03:08:58.715Z,7.29
2018-11-01T03:09:58.586Z,6.98
2018-11-01T03:10:58.458Z,6.65
2018-11-01T03:11:58.329Z,6.59
2018-11-01T03:12:58.199Z,6.56
2018-11-01T03:13:58.071Z,6.56
2018-11-01T03:14:57.940Z,6.54
2018-11-01T03:15:57.816Z,6.69
2018-11-01T03:16:57.710Z,6.83
2018-11-01T03:17:57.555Z,6.76
2018-11-01T03:18:57.428Z,6.63
2018-11-01T03:19:57.299Z,6.56
2018-11-01T03:20:57.170Z,6.51
2018-11-01T03:21:57.039Z,6.47
2018-11-01T03:22:56.916Z,7.05
2018-11-01T03:23:56.782Z,7.60
2018-11-01T03:24:56.657Z,7.87
2018-11-01T03:25:56.526Z,7.71
2018-11-01T03:26:56.402Z,7.59
2018-11-01T03:27:56.275Z,7.55
2018-11-01T03:28:56.141Z,7.32
2018-11-01T03:29:56.010Z,7.22
2018-11-01T03:30:55.882Z,7.08
2018-11-01T03:31:55.755Z,7.04
2018-11-01T03:32:55.625Z,6.80
2018-11-01T03:33:55.497Z,7.12
2018-11-01T03:34:55.374Z,7.40
2018-11-01T03:35:55.242Z,7.49
2018-11-01T03:36:55.113Z,7.60
2018-11-01T03:37:54.988Z,7.67
2018-11-01T03:38:54.945Z,7.59
2018-11-01T03:39:54.727Z,7.66
2018-11-01T03:40:54.599Z,7.62
2018-11-01T03:41:54.470Z,7.40
2018-11-01T03:42:54.343Z,7.53
2018-11-01T03:43:54.217Z,7.63
2018-11-01T03:44:54.088Z,7.55
2018-11-01T03:45:53.957Z,7.56
2018-11-01T03:46:53.829Z,7.22
2018-11-01T03:47:53.702Z,7.37
2018-11-01T03:48:53.581Z,7.37
2018-11-01T03:49:53.447Z,7.60
2018-11-01T03:50:53.317Z,7.59
2018-11-01T03:51:53.213Z,7.77
2018-11-01T03:52:53.063Z,7.56
2018-11-01T03:53:52.946Z,7.71
2018-11-01T03:54:52.803Z,7.81
2018-11-01T03:55:52.675Z,7.87
2018-11-01T03:56:52.547Z,7.72
2018-11-01T03:57:52.421Z,7.35
2018-11-01T03:58:52.292Z,7.24
2018-11-01T03:59:52.165Z,7.31
2018-11-01T04:00:52.035Z,7.02
2018-11-01T04:01:51.913Z,7.16
2018-11-01T04:02:51.785Z,7.45
2018-11-01T04:03:51.661Z,7.67
2018-11-01T04:04:51.523Z,7.78
2018-11-01T04:05:51.396Z,7.63
2018-11-01T04:06:51.266Z,7.69
2018-11-01T04:07:51.138Z,7.63
2018-11-01T04:08:51.009Z,7.37
2018-11-01T04:09:50.882Z,7.24
2018-11-01T04:10:50.758Z,7.45
2018-11-01T04:11:50.625Z,7.50
2018-11-01T04:12:50.500Z,7.56
2018-11-01T04:13:50.454Z,7.49
2018-11-01T04:14:50.253Z,7.59
2018-11-01T04:15:50.113Z,7.71
2018-11-01T04:16:49.988Z,7.78
2018-11-01T04:17:49.859Z,7.90
2018-11-01T04:18:49.760Z,7.92
2018-11-01T04:19:49.599Z,7.79
2018-11-01T04:20:49.477Z,7.60
2018-11-01T04:21:49.347Z,7.49
2018-11-01T04:22:49.214Z,7.34
2018-11-01T04:23:49.088Z,7.40
2018-11-01T04:24:48.965Z,7.41
2018-11-01T04:25:48.830Z,7.66
2018-11-01T04:26:48.702Z,7.67
2018-11-01T04:27:48.597Z,7.58
2018-11-01T04:28:48.530Z,7.55
2018-11-01T04:29:48.320Z,7.38
2018-11-01T04:30:48.192Z,7.40
2018-11-01T04:31:48.063Z,7.32
2018-11-01T04:32:47.937Z,7.50
2018-11-01T04:33:47.901Z,7.45
2018-11-01T04:34:47.683Z,7.49
2018-11-01T04:35:47.551Z,7.50
2018-11-01T04:36:47.426Z,7.50
2018-11-01T04:37:47.297Z,7.47
2018-11-01T04:38:47.168Z,7.27
2018-11-01T04:39:47.038Z,7.29
2018-11-01T04:40:47.003Z,7.22
2018-11-01T04:41:46.787Z,7.05
2018-11-01T04:42:46.656Z,6.63
2018-11-01T04:43:46.530Z,6.11
2018-11-01T04:44:46.405Z,5.73
2018-11-01T04:45:46.272Z,5.55
2018-11-01T04:46:46.144Z,5.46
2018-11-01T04:47:46.181Z,5.43
2018-11-01T04:48:45.887Z,5.37
2018-11-01T04:49:45.759Z,5.30
2018-11-01T04:50:45.631Z,5.30
2018-11-01T04:51:45.507Z,5.12
2018-11-01T04:52:45.374Z,5.12
2018-11-01T04:53:45.244Z,5.19
2018-11-01T04:54:45.117Z,5.19
2018-11-01T04:55:44.989Z,5.10
2018-11-01T04:56:44.860Z,5.10
2018-11-01T04:57:44.733Z,4.99
2018-11-01T04:58:44.604Z,5.04
2018-11-01T04:59:44.474Z,5.17
2018-11-01T05:00:44.353Z,5.17
2018-11-01T05:01:44.217Z,5.12
2018-11-01T05:02:44.094Z,5.10
2018-11-01T05:03:44.030Z,4.89
2018-11-01T05:04:43.829Z,4.79
2018-11-01T05:05:43.699Z,4.73
2018-11-01T05:06:43.604Z,4.72
2018-11-01T05:07:43.445Z,4.61
2018-11-01T05:08:43.313Z,4.70
2018-11-01T05:09:43.184Z,4.69
2018-11-01T05:10:43.054Z,4.73
2018-11-01T05:11:42.925Z,4.73
2018-11-01T05:12:42.846Z,4.84
2018-11-01T05:13:42.664Z,4.92
2018-11-01T05:14:42.538Z,4.95
2018-11-01T05:15:42.409Z,4.95
2018-11-01T05:16:42.277Z,4.94
2018-11-01T05:17:42.149Z,4.89
2018-11-01T05:18:42.029Z,4.75
2018-11-01T05:19:41.890Z,4.69
2018-11-01T05:20:41.799Z,4.73
2018-11-01T05:21:41.642Z,4.72
2018-11-01T05:22:41.502Z,4.72
2018-11-01T05:23:41.371Z,4.59
2018-11-01T05:24:41.311Z,4.55
2018-11-01T05:25:41.133Z,4.59
2018-11-01T05:26:40.982Z,4.55
2018-11-01T05:27:40.853Z,4.46
2018-11-01T05:28:40.730Z,4.40
2018-11-01T05:29:40.595Z,4.37
2018-11-01T05:30:40.469Z,4.50
2018-11-01T05:31:40.348Z,4.46
2018-11-01T05:32:40.230Z,4.39
2018-11-01T05:33:40.074Z,4.40
2018-11-01T05:34:39.948Z,4.34
2018-11-01T05:35:39.817Z,4.37
2018-11-01T05:36:39.686Z,4.37
2018-11-01T05:37:39.557Z,4.33
2018-11-01T05:38:39.430Z,4.29
2018-11-01T05:39:39.296Z,4.28
2018-11-01T05:40:39.167Z,4.25
2018-11-01T05:41:39.044Z,4.25
2018-11-01T05:42:38.906Z,4.19
2018-11-01T05:43:38.777Z,4.12
2018-11-01T05:44:38.651Z,4.16
2018-11-01T05:45:38.516Z,4.15
2018-11-01T05:46:38.388Z,4.16
2018-11-01T05:47:38.256Z,4.14
2018-11-01T05:48:38.127Z,4.14
2018-11-01T05:49:38.000Z,4.15
2018-11-01T05:50:37.866Z,4.15
2018-11-01T05:51:37.737Z,4.16
2018-11-01T05:52:37.607Z,4.15
2018-11-01T05:53:37.474Z,4.12
2018-11-01T05:54:37.346Z,4.19
2018-11-01T05:55:37.222Z,4.26
2018-11-01T05:56:37.084Z,4.29
2018-11-01T05:57:36.957Z,4.25
2018-11-01T05:58:36.824Z,4.22
2018-11-01T05:59:36.694Z,4.26
2018-11-01T06:00:36.566Z,4.28
2018-11-01T06:01:36.436Z,4.25
2018-11-01T06:02:36.305Z,4.32
2018-11-01T06:03:36.177Z,4.28
2018-11-01T06:04:36.045Z,4.25
2018-11-01T06:05:35.982Z,4.34
2018-11-01T06:06:35.784Z,4.22
2018-11-01T06:07:35.659Z,4.16
2018-11-01T06:08:35.526Z,4.12
2018-11-01T06:09:35.394Z,4.18
2018-11-01T06:10:35.264Z,4.14
2018-11-01T06:11:35.133Z,4.18
2018-11-01T06:12:35.094Z,4.14
2018-11-01T06:13:34.875Z,4.16
2018-11-01T06:14:34.743Z,4.16
2018-11-01T06:15:34.614Z,4.10
2018-11-01T06:16:34.485Z,4.12
2018-11-01T06:17:34.353Z,4.15
2018-11-01T06:18:34.224Z,4.19
2018-11-01T06:19:34.095Z,4.19
2018-11-01T06:20:33.971Z,4.16
2018-11-01T06:21:33.838Z,4.07
2018-11-01T06:22:33.705Z,4.12
2018-11-01T06:23:33.572Z,4.14
2018-11-01T06:24:33.460Z,4.21
2018-11-01T06:25:33.314Z,4.18
2018-11-01T06:26:33.183Z,4.18
2018-11-01T06:27:33.053Z,4.10
2018-11-01T06:28:32.921Z,4.04
2018-11-01T06:29:32.791Z,4.12
2018-11-01T06:30:32.763Z,4.15
2018-11-01T06:31:32.533Z,4.14
2018-11-01T06:32:32.402Z,4.04
2018-11-01T06:33:32.276Z,4.08
2018-11-01T06:34:32.143Z,4.08
2018-11-01T06:35:32.010Z,4.07
2018-11-01T06:36:31.885Z,4.14
2018-11-01T06:37:31.749Z,4.04
2018-11-01T06:38:31.619Z,4.07
2018-11-01T06:39:31.491Z,3.94
2018-11-01T06:40:31.359Z,4.07
2018-11-01T06:41:31.228Z,4.10
2018-11-01T06:42:31.096Z,3.98
2018-11-01T06:43:30.967Z,4.01
2018-11-01T06:44:30.842Z,4.03
2018-11-01T06:45:30.707Z,3.97
2018-11-01T06:46:30.581Z,3.94
2018-11-01T06:47:30.447Z,4.00
2018-11-01T06:48:30.317Z,3.96
2018-11-01T06:49:30.185Z,4.03
2018-11-01T06:50:30.055Z,3.92
2018-11-01T06:51:29.926Z,3.90
2018-11-01T06:52:29.847Z,4.03
2018-11-01T06:53:29.663Z,4.03
2018-11-01T06:54:29.534Z,3.94
2018-11-01T06:55:29.404Z,3.82
2018-11-01T06:56:29.275Z,3.88
2018-11-01T06:57:29.142Z,3.82
2018-11-01T06:58:29.202Z,3.90
2018-11-01T06:59:28.906Z,3.85
2018-11-01T07:00:28.756Z,3.88
2018-11-01T07:01:28.623Z,3.85
2018-11-01T07:02:28.493Z,3.92
2018-11-01T07:03:28.361Z,3.86
2018-11-01T07:04:28.232Z,3.79
2018-11-01T07:05:28.109Z,3.85
2018-11-01T07:06:27.970Z,3.89
2018-11-01T07:07:27.847Z,3.85
2018-11-01T07:08:27.711Z,3.76
2018-11-01T07:09:27.579Z,3.86
2018-11-01T07:10:27.451Z,3.90
2018-11-01T07:11:27.393Z,3.89
2018-11-01T07:12:27.190Z,3.88
2018-11-01T07:13:27.062Z,3.85
2018-11-01T07:14:26.927Z,3.88
2018-11-01T07:15:26.796Z,3.94
2018-11-01T07:16:26.669Z,3.89
2018-11-01T07:17:26.698Z,3.92
2018-11-01T07:18:26.405Z,3.88
2018-11-01T07:19:26.276Z,3.89
2018-11-01T07:20:26.146Z,3.79
2018-11-01T07:21:26.015Z,3.82
2018-11-01T07:22:25.886Z,3.86
2018-11-01T07:23:25.754Z,3.89
2018-11-01T07:24:25.625Z,3.83
2018-11-01T07:25:25.607Z,3.85
2018-11-01T07:26:25.442Z,3.90
2018-11-01T07:27:25.232Z,3.78
2018-11-01T07:28:25.107Z,3.78
2018-11-01T07:29:24.971Z,3.75
2018-11-01T07:30:24.842Z,3.88
2018-11-01T07:31:24.713Z,3.76
2018-11-01T07:32:24.644Z,3.78
2018-11-01T07:33:24.455Z,3.83
2018-11-01T07:34:24.321Z,3.85
2018-11-01T07:35:24.192Z,3.94
2018-11-01T07:36:24.061Z,3.85
2018-11-01T07:37:23.933Z,3.90
2018-11-01T07:38:23.803Z,3.89
2018-11-01T07:39:23.673Z,3.89
2018-11-01T07:40:23.546Z,3.80
2018-11-01T07:41:23.411Z,3.86
2018-11-01T07:42:23.282Z,3.80
2018-11-01T07:43:23.151Z,3.75
2018-11-01T07:44:23.020Z,3.79
2018-11-01T07:45:22.894Z,3.88
2018-11-01T07:46:22.762Z,3.80
2018-11-01T07:47:22.681Z,3.80
2018-11-01T07:48:22.505Z,3.86
2018-11-01T07:49:22.409Z,3.88
2018-11-01T07:50:22.248Z,3.90
2018-11-01T07:51:22.388Z,3.82
2018-11-01T07:52:21.981Z,3.89
2018-11-01T07:53:21.884Z,3.88
2018-11-01T07:54:21.723Z,3.89
2018-11-01T07:55:21.591Z,3.85
2018-11-01T07:56:21.461Z,3.76
2018-11-01T07:57:21.331Z,3.89
2018-11-01T07:58:21.238Z,3.96
2018-11-01T07:59:21.071Z,3.88
2018-11-01T08:00:20.957Z,3.76
2018-11-01T08:01:20.852Z,3.86
2018-11-01T08:02:20.761Z,3.85
2018-11-01T08:03:20.559Z,3.92
2018-11-01T08:04:20.420Z,3.78
2018-11-01T08:05:20.291Z,3.80
2018-11-01T08:06:20.159Z,3.85
2018-11-01T08:07:20.067Z,3.71
2018-11-01T08:08:20.071Z,3.88
2018-11-01T08:09:19.770Z,3.96
2018-11-01T08:10:19.637Z,3.90
2018-11-01T08:11:19.508Z,3.82
2018-11-01T08:12:19.381Z,3.80
2018-11-01T08:13:19.251Z,3.86
2018-11-01T08:14:19.120Z,3.85
2018-11-01T08:15:18.990Z,3.71
2018-11-01T08:16:18.864Z,3.85
2018-11-01T08:17:18.726Z,3.88
2018-11-01T08:18:18.596Z,3.85
2018-11-01T08:19:18.465Z,3.80
2018-11-01T08:20:18.660Z,3.85
2018-11-01T08:21:18.314Z,3.79
2018-11-01T08:22:18.075Z,3.82
2018-11-01T08:23:17.946Z,3.76
2018-11-01T08:24:17.815Z,3.76
2018-11-01T08:25:17.685Z,3.79
2018-11-01T08:26:17.553Z,3.76
2018-11-01T08:27:17.426Z,3.75
2018-11-01T08:28:17.294Z,3.80
2018-11-01T08:29:17.171Z,3.82
2018-11-01T08:30:17.034Z,3.72
2018-11-01T08:31:16.907Z,3.78
2018-11-01T08:32:16.776Z,3.72
2018-11-01T08:33:16.640Z,3.72
2018-11-01T08:34:16.511Z,3.72
2018-11-01T08:35:16.386Z,3.71
2018-11-01T08:36:16.251Z,3.80
2018-11-01T08:37:16.120Z,3.72
2018-11-01T08:38:15.989Z,3.79
2018-11-01T08:39:15.949Z,3.78
2018-11-01T08:40:15.731Z,3.76
2018-11-01T08:41:15.604Z,3.83
2018-11-01T08:42:15.469Z,3.76
2018-11-01T08:43:15.342Z,3.83
2018-11-01T08:44:15.215Z,3.82
2018-11-01T08:45:15.078Z,3.79
2018-11-01T08:46:14.948Z,3.82
2018-11-01T08:47:14.818Z,3.82
2018-11-01T08:48:14.686Z,3.86
2018-11-01T08:49:14.596Z,3.85
2018-11-01T08:50:14.425Z,3.86
2018-11-01T08:51:14.298Z,3.86
2018-11-01T08:52:14.167Z,3.98
2018-11-01T08:53:14.037Z,3.98
2018-11-01T08:54:13.904Z,4.00
2018-11-01T08:55:13.777Z,3.96
2018-11-01T08:56:13.645Z,4.04
2018-11-01T08:57:13.514Z,4.15
2018-11-01T08:58:13.385Z,4.16
2018-11-01T08:59:13.256Z,4.12
2018-11-01T09:00:13.128Z,4.18
2018-11-01T09:01:12.996Z,4.21
2018-11-01T09:02:12.872Z,4.24
2018-11-01T09:03:12.742Z,4.25
2018-11-01T09:04:12.649Z,4.40
2018-11-01T09:05:12.477Z,4.39
2018-11-01T09:06:12.347Z,4.51
2018-11-01T09:07:12.216Z,4.47
2018-11-01T09:08:12.164Z,4.52
2018-11-01T09:09:11.958Z,4.64
2018-11-01T09:10:11.828Z,4.72
2018-11-01T09:11:11.698Z,4.65
2018-11-01T09:12:11.571Z,4.75
2018-11-01T09:13:11.483Z,4.73
2018-11-01T09:14:11.313Z,4.73
2018-11-01T09:15:11.184Z,4.77
2018-11-01T09:16:11.054Z,4.86
2018-11-01T09:17:10.921Z,4.92
2018-11-01T09:18:10.792Z,4.83
2018-11-01T09:19:10.673Z,4.80
2018-11-01T09:20:10.538Z,4.94
2018-11-01T09:21:10.405Z,4.91
2018-11-01T09:22:10.277Z,4.91
2018-11-01T09:23:10.149Z,5.01
2018-11-01T09:24:10.021Z,5.12
2018-11-01T09:25:09.891Z,5.25
2018-11-01T09:26:09.762Z,5.35
2018-11-01T09:27:09.705Z,5.53
2018-11-01T09:28:09.503Z,5.60
2018-11-01T09:29:09.374Z,5.70
2018-11-01T09:30:09.249Z,5.78
2018-11-01T09:31:09.135Z,6.00
2018-11-01T09:32:08.992Z,6.16
2018-11-01T09:33:08.859Z,6.29
2018-11-01T09:34:08.731Z,6.36
2018-11-01T09:35:08.601Z,6.59
2018-11-01T09:36:08.475Z,6.56
2018-11-01T09:37:08.342Z,6.62
2018-11-01T09:38:08.215Z,6.69
2018-11-01T09:39:08.089Z,6.65
2018-11-01T09:40:07.960Z,6.58
2018-11-01T09:41:07.830Z,6.51
2018-11-01T09:42:07.703Z,6.50
2018-11-01T09:43:07.575Z,6.47
2018-11-01T09:44:07.448Z,6.47
2018-11-01T09:45:07.319Z,6.40
2018-11-01T09:46:07.299Z,6.36
2018-11-01T09:47:07.278Z,6.13
2018-11-01T09:48:06.936Z,6.00
2018-11-01T09:49:06.810Z,5.91
2018-11-01T09:50:06.682Z,5.96
2018-11-01T09:51:06.552Z,6.11
2018-11-01T09:52:06.428Z,6.10
2018-11-01T09:53:06.298Z,5.96
2018-11-01T09:54:06.171Z,5.82
2018-11-01T09:55:06.042Z,5.85
2018-11-01T09:56:06.004Z,5.91
2018-11-01T09:57:05.785Z,5.96
2018-11-01T09:58:05.664Z,6.07
2018-11-01T09:59:05.531Z,6.13
2018-11-01T10:00:05.403Z,6.14
2018-11-01T10:01:05.392Z,6.00
2018-11-01T10:02:05.149Z,5.82
2018-11-01T10:03:05.022Z,5.78
2018-11-01T10:04:04.893Z,5.93
2018-11-01T10:05:04.767Z,6.03
2018-11-01T10:06:04.666Z,6.09
2018-11-01T10:07:04.585Z,6.11
2018-11-01T10:08:04.382Z,5.93
2018-11-01T10:09:04.253Z,5.91
2018-11-01T10:10:04.127Z,5.89
2018-11-01T10:11:03.998Z,5.85
2018-11-01T10:12:03.871Z,5.78
2018-11-01T10:13:03.742Z,5.55
2018-11-01T10:14:03.613Z,5.60
2018-11-01T10:15:03.625Z,5.46
2018-11-01T10:16:03.460Z,5.28
2018-11-01T10:17:03.547Z,5.38
2018-11-01T10:18:03.472Z,5.40
2018-11-01T10:19:02.974Z,5.41
2018-11-01T10:20:02.847Z,5.41
2018-11-01T10:21:02.721Z,5.56
2018-11-01T10:22:02.652Z,5.64
2018-11-01T10:23:02.557Z,5.78
2018-11-01T10:24:02.335Z,5.83
2018-11-01T10:25:02.223Z,5.96
2018-11-01T10:26:02.081Z,6.14
2018-11-01T10:27:01.950Z,5.95
2018-11-01T10:28:01.822Z,5.82
2018-11-01T10:29:01.692Z,5.71
2018-11-01T10:30:01.566Z,5.71
2018-11-01T10:31:01.437Z,5.60
2018-11-01T10:32:01.310Z,5.70
2018-11-01T10:33:01.181Z,5.78
2018-11-01T10:34:01.143Z,5.70
2018-11-01T10:35:00.925Z,5.71
2018-11-01T10:36:00.801Z,5.64
2018-11-01T10:37:00.672Z,5.71
2018-11-01T10:38:00.546Z,5.75
2018-11-01T10:39:00.412Z,5.75
2018-11-01T10:40:00.285Z,5.89
2018-11-01T10:41:00.272Z,5.93
2018-11-01T10:42:00.028Z,5.81
2018-11-01T10:42:59.902Z,5.71
2018-11-01T10:43:59.771Z,5.55
2018-11-01T10:44:59.642Z,5.50
2018-11-01T10:45:59.515Z,5.56
2018-11-01T10:46:59.387Z,5.59
2018-11-01T10:47:59.261Z,5.71
2018-11-01T10:48:59.130Z,5.89
2018-11-01T10:49:59.003Z,6.10
2018-11-01T10:50:58.874Z,6.32
2018-11-01T10:51:58.747Z,6.53
2018-11-01T10:52:58.623Z,6.61
2018-11-01T10:53:58.502Z,6.62
2018-11-01T10:54:58.363Z,6.72
2018-11-01T10:55:58.234Z,7.02
2018-11-01T10:56:58.108Z,7.24
2018-11-01T10:57:57.978Z,7.09
2018-11-01T10:58:57.853Z,6.80
2018-11-01T10:59:57.740Z,6.69
2018-11-01T11:00:57.769Z,6.89
2018-11-01T11:01:57.470Z,6.99
2018-11-01T11:02:57.339Z,7.32
2018-11-01T11:03:57.211Z,7.59
2018-11-01T11:04:57.085Z,7.59
2018-11-01T11:05:56.958Z,7.34
2018-11-01T11:06:56.831Z,7.35
2018-11-01T11:07:56.703Z,7.42
2018-11-01T11:08:56.575Z,7.97
2018-11-01T11:09:56.447Z,8.21
2018-11-01T11:10:56.321Z,8.17
2018-11-01T11:11:56.194Z,8.08
2018-11-01T11:12:56.068Z,8.28
2018-11-01T11:13:55.941Z,8.26
2018-11-01T11:14:55.813Z,8.04
2018-11-01T11:15:55.688Z,7.96
2018-11-01T11:16:55.560Z,7.93
2018-11-01T11:17:55.434Z,7.79
2018-11-01T11:18:55.310Z,7.82
2018-11-01T11:19:55.297Z,7.32
2018-11-01T11:20:55.319Z,7.23
2018-11-01T11:21:54.928Z,7.19
2018-11-01T11:22:54.800Z,6.98
2018-11-01T11:23:54.675Z,7.19
2018-11-01T11:24:54.549Z,7.34
2018-11-01T11:25:54.422Z,7.72
2018-11-01T11:26:54.295Z,8.04
2018-11-01T11:27:54.169Z,8.51
2018-11-01T11:28:54.040Z,8.87
2018-11-01T11:29:53.982Z,8.99
2018-11-01T11:30:53.789Z,9.18
2018-11-01T11:31:53.662Z,9.34
2018-11-01T11:32:53.540Z,9.40
2018-11-01T11:33:53.411Z,9.58
2018-11-01T11:34:53.284Z,9.60
2018-11-01T11:35:53.164Z,9.79
2018-11-01T11:36:53.032Z,9.99
2018-11-01T11:37:52.905Z,10.07
2018-11-01T11:38:52.792Z,9.97
2018-11-01T11:39:52.656Z,10.01
2018-11-01T11:40:52.528Z,9.66
2018-11-01T11:41:52.409Z,9.64
2018-11-01T11:42:52.278Z,9.75
2018-11-01T11:43:52.158Z,9.96
2018-11-01T11:44:52.033Z,9.97
2018-11-01T11:45:51.902Z,9.79
2018-11-01T11:46:51.778Z,9.73
2018-11-01T11:47:51.651Z,9.53
2018-11-01T11:48:51.525Z,9.10
2018-11-01T11:49:51.407Z,9.01
2018-11-01T11:50:51.277Z,8.88
2018-11-01T11:51:51.174Z,8.69
2018-11-01T11:52:51.026Z,8.76
2018-11-01T11:53:50.903Z,8.94
2018-11-01T11:54:50.776Z,9.21
2018-11-01T11:55:50.651Z,9.43
2018-11-01T11:56:50.528Z,9.45
2018-11-01T11:57:50.401Z,9.23
2018-11-01T11:58:50.274Z,8.90
2018-11-01T11:59:50.151Z,8.88
2018-11-01T12:00:50.024Z,8.69
2018-11-01T12:01:49.898Z,8.65
2018-11-01T12:02:49.778Z,8.86
2018-11-01T12:03:49.649Z,8.65
2018-11-01T12:04:49.522Z,8.63
2018-11-01T12:05:49.408Z,8.91
2018-11-01T12:06:49.274Z,9.20
2018-11-01T12:07:49.148Z,9.35
2018-11-01T12:08:49.021Z,9.30
2018-11-01T12:09:48.898Z,9.28
2018-11-01T12:10:48.769Z,9.32
2018-11-01T12:11:48.645Z,9.30
2018-11-01T12:12:48.520Z,9.58
2018-11-01T12:13:48.396Z,9.99
2018-11-01T12:14:48.270Z,10.18
2018-11-01T12:15:48.145Z,10.12
2018-11-01T12:16:48.022Z,9.52
2018-11-01T12:17:47.894Z,9.56
2018-11-01T12:18:47.769Z,9.32
2018-11-01T12:19:47.644Z,9.21
2018-11-01T12:20:47.516Z,9.13
2018-11-01T12:21:47.392Z,9.46
2018-11-01T12:22:47.268Z,10.14
2018-11-01T12:23:47.141Z,10.33
2018-11-01T12:24:47.022Z,10.55
2018-11-01T12:25:46.892Z,11.06
2018-11-01T12:26:46.766Z,11.29
2018-11-01T12:27:46.642Z,11.80
2018-11-01T12:28:46.706Z,11.44
2018-11-01T12:29:46.391Z,11.39
2018-11-01T12:30:46.269Z,11.43
2018-11-01T12:31:46.141Z,11.68
2018-11-01T12:32:46.018Z,11.74
2018-11-01T12:33:45.894Z,11.50
2018-11-01T12:34:45.769Z,11.47
2018-11-01T12:35:45.711Z,11.27
2018-11-01T12:36:45.518Z,10.83
2018-11-01T12:37:45.392Z,10.62
2018-11-01T12:38:45.274Z,10.32
2018-11-01T12:39:45.146Z,10.39
2018-11-01T12:40:45.021Z,10.58
2018-11-01T12:41:44.996Z,10.84
2018-11-01T12:42:44.770Z,10.86
2018-11-01T12:43:44.648Z,10.60
2018-11-01T12:44:44.522Z,10.58
2018-11-01T12:45:44.397Z,10.32
2018-11-01T12:46:44.273Z,10.80
2018-11-01T12:47:44.156Z,10.95
2018-11-01T12:48:44.024Z,11.38
2018-11-01T12:49:43.970Z,11.57
2018-11-01T12:50:43.779Z,11.85
2018-11-01T12:51:43.652Z,11.99
2018-11-01T12:52:43.530Z,11.99
2018-11-01T12:53:43.405Z,11.70
2018-11-01T12:54:43.279Z,11.46
2018-11-01T12:55:43.156Z,10.91
2018-11-01T12:56:43.034Z,10.24
2018-11-01T12:57:42.907Z,10.19
2018-11-01T12:58:42.792Z,10.42
2018-11-01T12:59:42.664Z,10.84
2018-11-01T13:00:42.537Z,11.32
2018-11-01T13:01:42.415Z,11.77
2018-11-01T13:02:42.448Z,11.89
2018-11-01T13:03:42.168Z,11.43
2018-11-01T13:04:42.040Z,10.51
2018-11-01T13:05:41.916Z,10.14
2018-11-01T13:06:41.794Z,9.88
2018-11-01T13:07:41.672Z,9.73
2018-11-01T13:08:41.546Z,9.75
2018-11-01T13:09:41.420Z,9.86
2018-11-01T13:10:41.357Z,10.15
2018-11-01T13:11:41.173Z,10.99
2018-11-01T13:12:41.049Z,10.88
2018-11-01T13:13:40.925Z,11.02
2018-11-01T13:14:40.800Z,11.03